createdAt,value
2017-01-15T00:00:43.699Z,0
2017-01-15T00:01:43.763Z,0
2017-01-15T00:02:43.687Z,0
2017-01-15T00:03:43.672Z,0
2017-01-15T00:04:43.690Z,0
2017-01-15T00:05:45.155Z,0
2017-01-15T00:06:43.039Z,0
2017-01-15T00:07:44.010Z,0
2017-01-15T00:08:43.760Z,0
2017-01-15T00:09:43.425Z,0
2017-01-15T00:10:43.731Z,0
2017-01-15T00:11:43.836Z,0
2017-01-15T00:12:42.656Z,0
2017-01-15T00:13:43.403Z,0
2017-01-15T00:14:43.015Z,0
2017-01-15T00:15:43.866Z,0
2017-01-15T00:16:45.179Z,0
2017-01-15T00:17:43.828Z,0
2017-01-15T00:18:44.075Z,0
2017-01-15T00:19:43.450Z,0
2017-01-15T00:20:43.759Z,0
2017-01-15T00:21:43.515Z,0
2017-01-15T00:22:43.440Z,0
2017-01-15T00:23:43.531Z,0
2017-01-15T00:24:43.932Z,0
2017-01-15T00:25:43.938Z,0
2017-01-15T00:26:43.502Z,0
2017-01-15T00:27:45.904Z,0
2017-01-15T00:28:43.563Z,0
2017-01-15T00:29:45.227Z,0
2017-01-15T00:30:44.325Z,0
2017-01-15T00:31:43.144Z,0
2017-01-15T00:32:44.045Z,0
2017-01-15T00:33:43.164Z,0
2017-01-15T00:34:43.558Z,0
2017-01-15T00:35:43.564Z,0
2017-01-15T00:36:43.877Z,0
2017-01-15T00:37:43.584Z,0
2017-01-15T00:38:43.936Z,0
2017-01-15T00:39:43.253Z,0
2017-01-15T00:40:42.867Z,0
2017-01-15T00:41:43.269Z,0
2017-01-15T00:42:43.329Z,0
2017-01-15T00:43:44.026Z,0
2017-01-15T00:44:44.032Z,0
2017-01-15T00:45:43.771Z,0
2017-01-15T00:46:44.146Z,0
2017-01-15T00:47:44.060Z,0
2017-01-15T00:48:44.116Z,0
2017-01-15T00:49:44.117Z,0
2017-01-15T00:50:44.025Z,0
2017-01-15T00:51:44.090Z,0
2017-01-15T00:52:44.095Z,0
2017-01-15T00:53:43.801Z,0
2017-01-15T00:54:44.203Z,0
2017-01-15T00:55:43.577Z,0
2017-01-15T00:56:43.758Z,0
2017-01-15T00:57:43.338Z,0
2017-01-15T00:58:44.747Z,0
2017-01-15T00:59:43.303Z,0
2017-01-15T01:00:44.507Z,0
2017-01-15T01:01:43.315Z,0
2017-01-15T01:02:44.166Z,0
2017-01-15T01:03:43.794Z,0
2017-01-15T01:04:43.835Z,0
2017-01-15T01:05:44.634Z,0
2017-01-15T01:06:43.877Z,0
2017-01-15T01:07:43.759Z,0
2017-01-15T01:08:44.214Z,0
2017-01-15T01:09:45.087Z,0
2017-01-15T01:10:44.223Z,0
2017-01-15T01:11:44.665Z,0
2017-01-15T01:12:43.799Z,0
2017-01-15T01:13:59.335Z,0
2017-01-15T01:14:43.861Z,0
2017-01-15T01:15:44.264Z,0
2017-01-15T01:16:44.268Z,0
2017-01-15T01:17:44.728Z,0
2017-01-15T01:18:43.144Z,0
2017-01-15T01:19:43.446Z,0
2017-01-15T01:20:44.811Z,0
2017-01-15T01:21:44.701Z,0
2017-01-15T01:22:44.424Z,0
2017-01-15T01:23:44.327Z,0
2017-01-15T01:24:44.629Z,0
2017-01-15T01:25:44.334Z,0
2017-01-15T01:26:43.900Z,0
2017-01-15T01:27:44.349Z,0
2017-01-15T01:28:44.409Z,0
2017-01-15T01:29:44.818Z,0
2017-01-15T01:30:44.340Z,0
2017-01-15T01:31:45.339Z,0
2017-01-15T01:32:44.392Z,0
2017-01-15T01:33:45.057Z,0
2017-01-15T01:34:43.668Z,0
2017-01-15T01:35:44.510Z,0
2017-01-15T01:36:44.416Z,0
2017-01-15T01:37:44.477Z,0
2017-01-15T01:38:43.697Z,0
2017-01-15T01:39:44.104Z,0
2017-01-15T01:40:43.259Z,0
2017-01-15T01:41:44.064Z,0
2017-01-15T01:42:45.826Z,0
2017-01-15T01:43:44.508Z,0
2017-01-15T01:44:44.588Z,0
2017-01-15T01:45:44.098Z,0
2017-01-15T01:46:44.206Z,0
2017-01-15T01:47:43.771Z,0
2017-01-15T01:48:44.526Z,0
2017-01-15T01:49:44.371Z,0
2017-01-15T01:50:44.603Z,0
2017-01-15T01:51:44.199Z,0
2017-01-15T01:52:43.802Z,0
2017-01-15T01:53:45.103Z,0
2017-01-15T01:54:43.916Z,0
2017-01-15T01:55:45.012Z,0
2017-01-15T01:56:43.779Z,0
2017-01-15T01:57:44.628Z,0
2017-01-15T01:58:43.808Z,0
2017-01-15T01:59:44.152Z,0
2017-01-15T02:00:44.605Z,0
2017-01-15T02:01:43.924Z,0
2017-01-15T02:02:44.322Z,0
2017-01-15T02:03:44.654Z,0
2017-01-15T02:04:45.142Z,0
2017-01-15T02:05:43.847Z,0
2017-01-15T02:06:45.188Z,0
2017-01-15T02:07:43.815Z,0
2017-01-15T02:08:44.716Z,0
2017-01-15T02:09:43.876Z,0
2017-01-15T02:10:44.380Z,0
2017-01-15T02:11:44.637Z,0
2017-01-15T02:12:44.346Z,0
2017-01-15T02:13:45.146Z,0
2017-01-15T02:14:44.312Z,0
2017-01-15T02:15:45.632Z,0
2017-01-15T02:16:44.430Z,0
2017-01-15T02:17:45.337Z,0
2017-01-15T02:18:44.446Z,0
2017-01-15T02:19:44.555Z,0
2017-01-15T02:20:43.959Z,0
2017-01-15T02:21:44.864Z,0
2017-01-15T02:22:44.718Z,0
2017-01-15T02:23:43.985Z,0
2017-01-15T02:24:44.795Z,0
2017-01-15T02:25:44.840Z,0
2017-01-15T02:26:46.252Z,0
2017-01-15T02:27:44.914Z,0
2017-01-15T02:28:45.219Z,0
2017-01-15T02:29:44.434Z,0
2017-01-15T02:30:44.842Z,0
2017-01-15T02:31:44.304Z,0
2017-01-15T02:32:44.100Z,0
2017-01-15T02:33:44.513Z,0
2017-01-15T02:34:45.260Z,0
2017-01-15T02:35:44.469Z,0
2017-01-15T02:36:44.533Z,0
2017-01-15T02:37:46.547Z,0
2017-01-15T02:38:43.881Z,0
2017-01-15T02:39:45.409Z,0
2017-01-15T02:40:44.223Z,0
2017-01-15T02:41:45.171Z,0
2017-01-15T02:42:44.080Z,0
2017-01-15T02:43:45.356Z,0
2017-01-15T02:44:44.887Z,0
2017-01-15T02:45:44.998Z,0
2017-01-15T02:46:44.606Z,0
2017-01-15T02:47:45.011Z,0
2017-01-15T02:48:46.942Z,0
2017-01-15T02:49:45.453Z,0
2017-01-15T02:50:46.337Z,0
2017-01-15T02:51:44.832Z,0
2017-01-15T02:52:45.636Z,0
2017-01-15T02:53:45.004Z,0
2017-01-15T02:54:45.011Z,0
2017-01-15T02:55:45.464Z,0
2017-01-15T02:56:44.714Z,0
2017-01-15T02:57:44.291Z,0
2017-01-15T02:58:44.650Z,0
2017-01-15T02:59:44.654Z,0
2017-01-15T03:00:44.218Z,0
2017-01-15T03:01:46.521Z,0
2017-01-15T03:02:45.521Z,0
2017-01-15T03:03:45.978Z,0
2017-01-15T03:04:45.190Z,0
2017-01-15T03:05:44.354Z,0
2017-01-15T03:06:44.717Z,0
2017-01-15T03:07:45.208Z,0
2017-01-15T03:08:44.675Z,0
2017-01-15T03:09:45.571Z,0
2017-01-15T03:10:45.133Z,0
2017-01-15T03:11:45.149Z,0
2017-01-15T03:12:44.311Z,0
2017-01-15T03:13:44.763Z,0
2017-01-15T03:14:44.779Z,0
2017-01-15T03:15:45.174Z,0
2017-01-15T03:16:45.229Z,0
2017-01-15T03:17:44.498Z,0
2017-01-15T03:18:44.796Z,0
2017-01-15T03:19:44.856Z,0
2017-01-15T03:20:44.383Z,0
2017-01-15T03:21:44.868Z,0
2017-01-15T03:22:44.882Z,0
2017-01-15T03:23:46.959Z,0
2017-01-15T03:24:45.240Z,0
2017-01-15T03:25:46.244Z,0
2017-01-15T03:26:45.204Z,0
2017-01-15T03:27:44.913Z,0
2017-01-15T03:28:44.869Z,0
2017-01-15T03:29:44.489Z,0
2017-01-15T03:30:44.936Z,0
2017-01-15T03:31:45.688Z,0
2017-01-15T03:32:45.009Z,0
2017-01-15T03:33:45.404Z,0
2017-01-15T03:34:44.588Z,0
2017-01-15T03:35:45.354Z,0
2017-01-15T03:36:44.935Z,0
2017-01-15T03:37:45.286Z,0
2017-01-15T03:38:45.098Z,0
2017-01-15T03:39:45.401Z,0
2017-01-15T03:40:44.913Z,0
2017-01-15T03:41:44.631Z,0
2017-01-15T03:42:44.978Z,0
2017-01-15T03:43:45.186Z,0
2017-01-15T03:44:44.947Z,0
2017-01-15T03:45:45.353Z,0
2017-01-15T03:46:45.062Z,0
2017-01-15T03:47:46.510Z,0
2017-01-15T03:48:45.073Z,0
2017-01-15T03:49:44.694Z,0
2017-01-15T03:50:45.431Z,0
2017-01-15T03:51:45.547Z,0
2017-01-15T03:52:45.046Z,0
2017-01-15T03:53:44.613Z,0
2017-01-15T03:54:45.514Z,0
2017-01-15T03:55:44.984Z,0
2017-01-15T03:56:45.234Z,0
2017-01-15T03:57:45.937Z,0
2017-01-15T03:58:45.103Z,0
2017-01-15T03:59:45.448Z,0
2017-01-15T04:00:45.216Z,0
2017-01-15T04:01:45.119Z,0
2017-01-15T04:02:44.780Z,0
2017-01-15T04:03:46.042Z,0
2017-01-15T04:04:45.141Z,0
2017-01-15T04:05:45.552Z,0
2017-01-15T04:06:45.251Z,0
2017-01-15T04:07:45.556Z,0
2017-01-15T04:08:44.730Z,0
2017-01-15T04:09:45.573Z,0
2017-01-15T04:10:45.339Z,0
2017-01-15T04:11:45.241Z,0
2017-01-15T04:12:45.652Z,0
2017-01-15T04:13:45.601Z,0
2017-01-15T04:14:45.657Z,0
2017-01-15T04:15:44.824Z,0
2017-01-15T04:16:45.829Z,0
2017-01-15T04:17:46.058Z,0
2017-01-15T04:18:45.500Z,0
2017-01-15T04:19:46.091Z,0
2017-01-15T04:20:45.610Z,0
2017-01-15T04:21:44.828Z,0
2017-01-15T04:22:44.879Z,0
2017-01-15T04:23:44.939Z,0
2017-01-15T04:24:45.290Z,0
2017-01-15T04:25:45.239Z,0
2017-01-15T04:26:45.751Z,0
2017-01-15T04:27:46.560Z,0
2017-01-15T04:28:45.662Z,0
2017-01-15T04:29:45.923Z,0
2017-01-15T04:30:45.632Z,0
2017-01-15T04:31:45.288Z,0
2017-01-15T04:32:45.349Z,0
2017-01-15T04:33:45.704Z,0
2017-01-15T04:34:45.382Z,0
2017-01-15T04:35:45.762Z,0
2017-01-15T04:36:45.331Z,0
2017-01-15T04:37:44.986Z,0
2017-01-15T04:38:46.945Z,0
2017-01-15T04:39:45.903Z,0
2017-01-15T04:40:46.252Z,0
2017-01-15T04:41:46.259Z,0
2017-01-15T04:42:46.217Z,0
2017-01-15T04:43:45.398Z,0
2017-01-15T04:44:45.488Z,0
2017-01-15T04:45:45.000Z,0
2017-01-15T04:46:45.955Z,0
2017-01-15T04:47:45.532Z,0
2017-01-15T04:48:45.415Z,0
2017-01-15T04:49:47.316Z,0
2017-01-15T04:50:45.038Z,0
2017-01-15T04:51:46.787Z,0
2017-01-15T04:52:45.501Z,0
2017-01-15T04:53:45.510Z,0
2017-01-15T04:54:45.907Z,0
2017-01-15T04:55:45.468Z,0
2017-01-15T04:56:46.316Z,0
2017-01-15T04:57:46.424Z,0
2017-01-15T04:58:45.539Z,0
2017-01-15T04:59:45.544Z,0
2017-01-15T05:00:47.696Z,0
2017-01-15T05:01:46.009Z,0
2017-01-15T05:02:47.132Z,0
2017-01-15T05:03:46.419Z,0
2017-01-15T05:04:45.235Z,0
2017-01-15T05:05:45.990Z,0
2017-01-15T05:06:46.046Z,0
2017-01-15T05:07:45.209Z,0
2017-01-15T05:08:45.664Z,0
2017-01-15T05:09:46.414Z,0
2017-01-15T05:10:45.688Z,0
2017-01-15T05:11:45.590Z,0
2017-01-15T05:12:46.439Z,0
2017-01-15T05:13:47.606Z,0
2017-01-15T05:14:46.502Z,0
2017-01-15T05:15:45.221Z,0
2017-01-15T05:16:45.679Z,0
2017-01-15T05:17:45.681Z,0
2017-01-15T05:18:44.997Z,0
2017-01-15T05:19:46.588Z,0
2017-01-15T05:20:45.705Z,0
2017-01-15T05:21:46.554Z,0
2017-01-15T05:22:45.959Z,0
2017-01-15T05:23:45.634Z,0
2017-01-15T05:24:47.787Z,0
2017-01-15T05:25:45.789Z,0
2017-01-15T05:26:46.143Z,0
2017-01-15T05:27:45.363Z,0
2017-01-15T05:28:45.792Z,0
2017-01-15T05:29:46.167Z,0
2017-01-15T05:30:45.781Z,0
2017-01-15T05:31:46.247Z,0
2017-01-15T05:32:45.643Z,0
2017-01-15T05:33:46.345Z,0
2017-01-15T05:34:45.857Z,0
2017-01-15T05:35:45.811Z,0
2017-01-15T05:36:45.828Z,0
2017-01-15T05:37:45.435Z,0
2017-01-15T05:38:45.838Z,0
2017-01-15T05:39:46.197Z,0
2017-01-15T05:40:45.950Z,0
2017-01-15T05:41:46.258Z,0
2017-01-15T05:42:46.290Z,0
2017-01-15T05:43:45.925Z,0
2017-01-15T05:44:46.564Z,0
2017-01-15T05:45:45.989Z,0
2017-01-15T05:46:45.914Z,0
2017-01-15T05:47:45.855Z,0
2017-01-15T05:48:45.223Z,0
2017-01-15T05:49:45.914Z,0
2017-01-15T05:50:46.272Z,0
2017-01-15T05:51:46.035Z,0
2017-01-15T05:52:46.338Z,0
2017-01-15T05:53:46.740Z,0
2017-01-15T05:54:46.055Z,0
2017-01-15T05:55:46.909Z,0
2017-01-15T05:56:46.037Z,0
2017-01-15T05:57:46.427Z,0
2017-01-15T05:58:46.088Z,0
2017-01-15T05:59:46.021Z,0
2017-01-15T06:00:45.556Z,0
2017-01-15T06:01:46.006Z,0
2017-01-15T06:02:46.039Z,0
2017-01-15T06:03:46.020Z,0
2017-01-15T06:04:46.170Z,0
2017-01-15T06:05:46.927Z,0
2017-01-15T06:06:47.441Z,0
2017-01-15T06:07:46.002Z,0
2017-01-15T06:08:46.704Z,0
2017-01-15T06:09:46.068Z,0
2017-01-15T06:10:46.532Z,0
2017-01-15T06:11:46.942Z,0
2017-01-15T06:12:46.406Z,0
2017-01-15T06:13:45.649Z,0
2017-01-15T06:14:45.315Z,0
2017-01-15T06:15:46.112Z,0
2017-01-15T06:16:46.223Z,0
2017-01-15T06:17:47.623Z,0
2017-01-15T06:18:46.139Z,0
2017-01-15T06:19:47.156Z,0
2017-01-15T06:20:46.237Z,0
2017-01-15T06:21:45.761Z,0
2017-01-15T06:22:46.611Z,0
2017-01-15T06:23:45.824Z,0
2017-01-15T06:24:46.177Z,0
2017-01-15T06:25:46.687Z,0
2017-01-15T06:26:45.802Z,0
2017-01-15T06:27:46.306Z,0
2017-01-15T06:28:48.167Z,0
2017-01-15T06:29:46.664Z,0
2017-01-15T06:30:47.080Z,0
2017-01-15T06:31:46.730Z,0
2017-01-15T06:32:46.611Z,0
2017-01-15T06:33:46.197Z,0
2017-01-15T06:34:46.700Z,0
2017-01-15T06:35:45.968Z,0
2017-01-15T06:36:46.719Z,0
2017-01-15T06:37:46.283Z,0
2017-01-15T06:38:46.684Z,0
2017-01-15T06:39:48.381Z,0
2017-01-15T06:40:46.697Z,0
2017-01-15T06:41:47.761Z,0
2017-01-15T06:42:46.417Z,0
2017-01-15T06:43:46.671Z,0
2017-01-15T06:44:45.988Z,0
2017-01-15T06:45:45.946Z,0
2017-01-15T06:46:45.900Z,0
2017-01-15T06:47:46.405Z,0
2017-01-15T06:48:46.362Z,0
2017-01-15T06:49:46.466Z,0
2017-01-15T06:50:47.219Z,0
2017-01-15T06:51:46.642Z,0
2017-01-15T06:52:47.840Z,0
2017-01-15T06:53:46.006Z,0
2017-01-15T06:54:46.804Z,0
2017-01-15T06:55:46.808Z,0
2017-01-15T06:56:46.026Z,0
2017-01-15T06:57:46.875Z,0
2017-01-15T06:58:46.380Z,0
2017-01-15T06:59:46.743Z,0
2017-01-15T07:00:46.455Z,0
2017-01-15T07:01:46.909Z,0
2017-01-15T07:02:46.961Z,0
2017-01-15T07:03:46.820Z,0
2017-01-15T07:04:46.531Z,0
2017-01-15T07:05:46.546Z,0
2017-01-15T07:06:46.916Z,0
2017-01-15T07:07:46.057Z,0
2017-01-15T07:08:46.909Z,0
2017-01-15T07:09:46.131Z,0
2017-01-15T07:10:48.119Z,0
2017-01-15T07:11:45.770Z,0
2017-01-15T07:12:47.382Z,0
2017-01-15T07:13:46.552Z,0
2017-01-15T07:14:46.616Z,0
2017-01-15T07:15:46.958Z,0
2017-01-15T07:16:46.971Z,0
2017-01-15T07:17:46.583Z,0
2017-01-15T07:18:46.640Z,0
2017-01-15T07:19:47.038Z,0
2017-01-15T07:20:46.994Z,0
2017-01-15T07:21:48.011Z,0
2017-01-15T07:22:47.064Z,0
2017-01-15T07:23:47.071Z,0
2017-01-15T07:24:46.975Z,0
2017-01-15T07:25:46.698Z,0
2017-01-15T07:26:46.698Z,0
2017-01-15T07:27:46.702Z,0
2017-01-15T07:28:46.657Z,0
2017-01-15T07:29:46.249Z,0
2017-01-15T07:30:46.281Z,0
2017-01-15T07:31:47.184Z,0
2017-01-15T07:32:47.454Z,0
2017-01-15T07:33:47.094Z,0
2017-01-15T07:34:47.905Z,0
2017-01-15T07:35:46.736Z,0
2017-01-15T07:36:47.473Z,0
2017-01-15T07:37:47.172Z,0
2017-01-15T07:38:47.080Z,0
2017-01-15T07:39:47.537Z,0
2017-01-15T07:40:46.358Z,0
2017-01-15T07:41:47.235Z,5
2017-01-15T07:42:46.814Z,5
2017-01-15T07:43:47.985Z,5
2017-01-15T07:44:46.777Z,5
2017-01-15T07:45:48.142Z,5
2017-01-15T07:46:46.744Z,5
2017-01-15T07:47:47.451Z,5
2017-01-15T07:48:47.064Z,5
2017-01-15T07:49:46.771Z,5
2017-01-15T07:50:46.926Z,5
2017-01-15T07:51:47.569Z,5
2017-01-15T07:52:46.441Z,5
2017-01-15T07:53:46.851Z,5
2017-01-15T07:54:46.859Z,10
2017-01-15T07:55:46.516Z,10
2017-01-15T07:56:48.469Z,10
2017-01-15T07:57:47.026Z,10
2017-01-15T07:58:47.736Z,10
2017-01-15T07:59:47.634Z,10
2017-01-15T08:00:46.553Z,10
2017-01-15T08:01:47.305Z,10
2017-01-15T08:02:47.361Z,10
2017-01-15T08:03:47.416Z,10
2017-01-15T08:04:47.276Z,10
2017-01-15T08:05:47.033Z,10
2017-01-15T08:06:47.440Z,10
2017-01-15T08:07:46.976Z,10
2017-01-15T08:08:47.305Z,10
2017-01-15T08:09:48.418Z,10
2017-01-15T08:10:46.630Z,10
2017-01-15T08:11:46.637Z,10
2017-01-15T08:12:47.038Z,10
2017-01-15T08:13:47.841Z,15
2017-01-15T08:14:47.404Z,15
2017-01-15T08:15:47.010Z,15
2017-01-15T08:16:47.376Z,15
2017-01-15T08:17:46.632Z,20
2017-01-15T08:18:47.829Z,20
2017-01-15T08:19:47.443Z,20
2017-01-15T08:20:48.972Z,20
2017-01-15T08:21:47.313Z,20
2017-01-15T08:22:47.458Z,20
2017-01-15T08:23:47.048Z,20
2017-01-15T08:24:47.525Z,25
2017-01-15T08:25:47.484Z,25
2017-01-15T08:26:47.548Z,25
2017-01-15T08:27:47.858Z,25
2017-01-15T08:28:47.558Z,25
2017-01-15T08:29:47.712Z,25
2017-01-15T08:30:47.178Z,25
2017-01-15T08:31:47.184Z,25
2017-01-15T08:32:46.745Z,25
2017-01-15T08:33:47.206Z,25
2017-01-15T08:34:46.731Z,25
2017-01-15T08:35:47.208Z,25
2017-01-15T08:36:47.617Z,25
2017-01-15T08:37:47.228Z,30
2017-01-15T08:38:48.539Z,30
2017-01-15T08:39:47.142Z,30
2017-01-15T08:40:48.096Z,30
2017-01-15T08:41:47.905Z,30
2017-01-15T08:42:47.607Z,35
2017-01-15T08:43:46.827Z,35
2017-01-15T08:44:47.575Z,40
2017-01-15T08:45:47.931Z,65
2017-01-15T08:46:47.246Z,70
2017-01-15T08:47:47.661Z,65
2017-01-15T08:48:48.108Z,70
2017-01-15T08:49:47.272Z,70
2017-01-15T08:50:47.328Z,70
2017-01-15T08:51:48.748Z,65
2017-01-15T08:52:46.902Z,65
2017-01-15T08:53:48.101Z,65
2017-01-15T08:54:47.364Z,70
2017-01-15T08:55:47.824Z,65
2017-01-15T08:56:47.280Z,70
2017-01-15T08:57:47.741Z,75
2017-01-15T08:58:47.500Z,70
2017-01-15T08:59:47.312Z,50
2017-01-15T09:00:47.807Z,70
2017-01-15T09:01:48.218Z,70
2017-01-15T09:02:49.233Z,80
2017-01-15T09:03:47.810Z,80
2017-01-15T09:04:48.531Z,85
2017-01-15T09:05:47.014Z,85
2017-01-15T09:06:47.373Z,85
2017-01-15T09:07:47.827Z,85
2017-01-15T09:08:48.176Z,85
2017-01-15T09:09:48.286Z,95
2017-01-15T09:10:47.502Z,95
2017-01-15T09:11:47.862Z,95
2017-01-15T09:12:47.527Z,95
2017-01-15T09:13:49.605Z,90
2017-01-15T09:14:47.100Z,95
2017-01-15T09:15:48.269Z,95
2017-01-15T09:16:47.612Z,100
2017-01-15T09:17:47.919Z,100
2017-01-15T09:18:47.986Z,95
2017-01-15T09:19:47.002Z,95
2017-01-15T09:20:47.126Z,100
2017-01-15T09:21:47.574Z,100
2017-01-15T09:22:47.260Z,105
2017-01-15T09:23:47.285Z,100
2017-01-15T09:24:49.957Z,105
2017-01-15T09:25:47.947Z,110
2017-01-15T09:26:48.778Z,110
2017-01-15T09:27:48.073Z,110
2017-01-15T09:28:47.978Z,120
2017-01-15T09:29:48.042Z,120
2017-01-15T09:30:47.602Z,120
2017-01-15T09:31:47.721Z,110
2017-01-15T09:32:47.232Z,130
2017-01-15T09:33:48.525Z,150
2017-01-15T09:34:47.697Z,155
2017-01-15T09:35:47.724Z,165
2017-01-15T09:36:48.113Z,160
2017-01-15T09:37:49.147Z,160
2017-01-15T09:38:47.687Z,170
2017-01-15T09:39:48.889Z,135
2017-01-15T09:40:47.758Z,90
2017-01-15T09:41:47.370Z,90
2017-01-15T09:42:48.621Z,70
2017-01-15T09:43:47.834Z,75
2017-01-15T09:44:48.485Z,80
2017-01-15T09:45:47.413Z,75
2017-01-15T09:46:48.415Z,90
2017-01-15T09:47:48.666Z,115
2017-01-15T09:48:47.384Z,85
2017-01-15T09:49:48.242Z,75
2017-01-15T09:50:48.199Z,60
2017-01-15T09:51:47.513Z,50
2017-01-15T09:52:47.473Z,50
2017-01-15T09:53:48.328Z,55
2017-01-15T09:54:47.540Z,50
2017-01-15T09:55:49.145Z,55
2017-01-15T09:56:47.455Z,55
2017-01-15T09:57:48.109Z,45
2017-01-15T09:58:48.664Z,50
2017-01-15T09:59:49.733Z,50
2017-01-15T10:00:47.538Z,55
2017-01-15T10:01:47.994Z,55
2017-01-15T10:02:47.508Z,50
2017-01-15T10:03:47.914Z,55
2017-01-15T10:04:48.714Z,55
2017-01-15T10:05:48.374Z,70
2017-01-15T10:06:49.635Z,70
2017-01-15T10:07:48.045Z,65
2017-01-15T10:08:48.851Z,55
2017-01-15T10:09:47.764Z,50
2017-01-15T10:10:48.673Z,45
2017-01-15T10:11:48.134Z,40
2017-01-15T10:12:47.590Z,45
2017-01-15T10:13:48.061Z,50
2017-01-15T10:14:47.661Z,50
2017-01-15T10:15:48.515Z,50
2017-01-15T10:16:48.570Z,45
2017-01-15T10:17:49.528Z,35
2017-01-15T10:18:48.538Z,40
2017-01-15T10:19:48.956Z,40
2017-01-15T10:20:48.499Z,40
2017-01-15T10:21:48.665Z,40
2017-01-15T10:22:48.534Z,40
2017-01-15T10:23:48.677Z,50
2017-01-15T10:24:48.187Z,60
2017-01-15T10:25:47.854Z,60
2017-01-15T10:26:48.101Z,60
2017-01-15T10:27:48.206Z,60
2017-01-15T10:28:48.516Z,60
2017-01-15T10:29:47.795Z,55
2017-01-15T10:30:49.660Z,60
2017-01-15T10:31:48.241Z,60
2017-01-15T10:32:49.300Z,70
2017-01-15T10:33:47.861Z,65
2017-01-15T10:34:48.661Z,65
2017-01-15T10:35:48.227Z,60
2017-01-15T10:36:48.281Z,60
2017-01-15T10:37:48.219Z,60
2017-01-15T10:38:49.089Z,55
2017-01-15T10:39:48.713Z,60
2017-01-15T10:40:48.319Z,55
2017-01-15T10:41:47.935Z,55
2017-01-15T10:42:48.284Z,55
2017-01-15T10:43:48.295Z,55
2017-01-15T10:44:48.248Z,55
2017-01-15T10:45:48.753Z,60
2017-01-15T10:46:48.820Z,55
2017-01-15T10:47:47.930Z,55
2017-01-15T10:48:47.589Z,55
2017-01-15T10:49:48.289Z,55
2017-01-15T10:50:48.597Z,55
2017-01-15T10:51:48.850Z,55
2017-01-15T10:52:48.757Z,55
2017-01-15T10:53:47.979Z,55
2017-01-15T10:54:48.721Z,55
2017-01-15T10:55:48.780Z,55
2017-01-15T10:56:47.994Z,50
2017-01-15T10:57:48.401Z,50
2017-01-15T10:58:48.902Z,45
2017-01-15T10:59:47.726Z,40
2017-01-15T11:00:48.525Z,40
2017-01-15T11:01:48.793Z,35
2017-01-15T11:02:49.277Z,35
2017-01-15T11:03:48.803Z,35
2017-01-15T11:04:48.856Z,35
2017-01-15T11:05:48.868Z,35
2017-01-15T11:06:48.874Z,35
2017-01-15T11:07:48.887Z,30
2017-01-15T11:08:48.488Z,35
2017-01-15T11:09:48.593Z,35
2017-01-15T11:10:48.596Z,35
2017-01-15T11:11:48.168Z,30
2017-01-15T11:12:49.472Z,30
2017-01-15T11:13:49.425Z,30
2017-01-15T11:14:49.133Z,30
2017-01-15T11:15:48.252Z,30
2017-01-15T11:16:48.552Z,35
2017-01-15T11:17:49.400Z,35
2017-01-15T11:18:48.911Z,40
2017-01-15T11:19:48.574Z,40
2017-01-15T11:20:48.585Z,40
2017-01-15T11:21:48.536Z,40
2017-01-15T11:22:49.390Z,40
2017-01-15T11:23:50.152Z,40
2017-01-15T11:24:48.215Z,40
2017-01-15T11:25:49.395Z,40
2017-01-15T11:26:47.878Z,40
2017-01-15T11:27:48.630Z,40
2017-01-15T11:28:48.691Z,40
2017-01-15T11:29:48.999Z,40
2017-01-15T11:30:47.916Z,40
2017-01-15T11:31:48.316Z,40
2017-01-15T11:32:49.171Z,40
2017-01-15T11:33:49.027Z,40
2017-01-15T11:34:50.497Z,40
2017-01-15T11:35:49.165Z,40
2017-01-15T11:36:49.815Z,45
2017-01-15T11:37:47.968Z,45
2017-01-15T11:38:49.168Z,45
2017-01-15T11:39:49.171Z,45
2017-01-15T11:40:49.078Z,50
2017-01-15T11:41:49.136Z,50
2017-01-15T11:42:48.759Z,45
2017-01-15T11:43:49.204Z,45
2017-01-15T11:44:49.555Z,45
2017-01-15T11:45:48.824Z,45
2017-01-15T11:46:49.590Z,45
2017-01-15T11:47:50.238Z,45
2017-01-15T11:48:47.950Z,45
2017-01-15T11:49:48.744Z,50
2017-01-15T11:50:48.860Z,50
2017-01-15T11:51:48.917Z,50
2017-01-15T11:52:49.469Z,50
2017-01-15T11:53:48.829Z,50
2017-01-15T11:54:49.237Z,50
2017-01-15T11:55:49.635Z,50
2017-01-15T11:56:49.008Z,50
2017-01-15T11:57:49.255Z,50
2017-01-15T11:58:50.838Z,50
2017-01-15T11:59:48.924Z,50
2017-01-15T12:00:48.886Z,50
2017-01-15T12:01:48.452Z,50
2017-01-15T12:02:48.948Z,45
2017-01-15T12:03:49.010Z,45
2017-01-15T12:04:48.964Z,50
2017-01-15T12:05:49.369Z,45
2017-01-15T12:06:49.965Z,45
2017-01-15T12:07:49.532Z,45
2017-01-15T12:08:48.944Z,45
2017-01-15T12:09:49.764Z,40
2017-01-15T12:10:48.962Z,40
2017-01-15T12:11:49.463Z,40
2017-01-15T12:12:49.670Z,35
2017-01-15T12:13:48.536Z,35
2017-01-15T12:14:48.594Z,35
2017-01-15T12:15:49.000Z,35
2017-01-15T12:16:48.955Z,35
2017-01-15T12:17:49.760Z,35
2017-01-15T12:18:49.926Z,35
2017-01-15T12:19:49.473Z,30
2017-01-15T12:20:49.530Z,30
2017-01-15T12:21:48.359Z,30
2017-01-15T12:22:49.102Z,30
2017-01-15T12:23:49.510Z,30
2017-01-15T12:24:49.213Z,30
2017-01-15T12:25:49.170Z,30
2017-01-15T12:26:49.473Z,30
2017-01-15T12:27:49.878Z,30
2017-01-15T12:28:49.142Z,30
2017-01-15T12:29:50.754Z,30
2017-01-15T12:30:49.104Z,30
2017-01-15T12:31:49.629Z,30
2017-01-15T12:32:48.785Z,30
2017-01-15T12:33:48.834Z,30
2017-01-15T12:34:49.198Z,30
2017-01-15T12:35:49.689Z,30
2017-01-15T12:36:48.810Z,30
2017-01-15T12:37:49.604Z,30
2017-01-15T12:38:48.773Z,30
2017-01-15T12:39:49.223Z,30
2017-01-15T12:40:51.321Z,30
2017-01-15T12:41:49.984Z,25
2017-01-15T12:42:50.696Z,25
2017-01-15T12:43:48.906Z,25
2017-01-15T12:44:49.711Z,25
2017-01-15T12:45:49.720Z,25
2017-01-15T12:46:49.774Z,25
2017-01-15T12:47:49.291Z,25
2017-01-15T12:48:48.855Z,25
2017-01-15T12:49:49.348Z,25
2017-01-15T12:50:48.915Z,25
2017-01-15T12:51:49.312Z,25
2017-01-15T12:52:49.617Z,25
2017-01-15T12:53:48.487Z,25
2017-01-15T12:54:49.781Z,25
2017-01-15T12:55:49.289Z,25
2017-01-15T12:56:49.748Z,25
2017-01-15T12:57:48.914Z,25
2017-01-15T12:58:48.580Z,25
2017-01-15T12:59:48.929Z,25
2017-01-15T13:00:50.329Z,25
2017-01-15T13:01:48.893Z,25
2017-01-15T13:02:49.693Z,25
2017-01-15T13:03:48.613Z,25
2017-01-15T13:04:51.729Z,25
2017-01-15T13:05:49.421Z,30
2017-01-15T13:06:49.377Z,30
2017-01-15T13:07:49.431Z,30
2017-01-15T13:08:49.391Z,30
2017-01-15T13:09:49.349Z,30
2017-01-15T13:10:50.148Z,30
2017-01-15T13:11:50.213Z,30
2017-01-15T13:12:49.522Z,30
2017-01-15T13:13:50.374Z,30
2017-01-15T13:14:49.779Z,25
2017-01-15T13:15:49.642Z,25
2017-01-15T13:16:50.094Z,25
2017-01-15T13:17:49.504Z,25
2017-01-15T13:18:49.814Z,25
2017-01-15T13:19:50.215Z,25
2017-01-15T13:20:49.988Z,25
2017-01-15T13:21:49.585Z,25
2017-01-15T13:22:50.211Z,25
2017-01-15T13:23:49.502Z,25
2017-01-15T13:24:50.806Z,25
2017-01-15T13:25:49.068Z,25
2017-01-15T13:26:50.074Z,25
2017-01-15T13:27:48.790Z,25
2017-01-15T13:28:50.330Z,25
2017-01-15T13:29:49.642Z,25
2017-01-15T13:30:50.008Z,25
2017-01-15T13:31:49.163Z,25
2017-01-15T13:32:49.915Z,25
2017-01-15T13:33:49.586Z,20
2017-01-15T13:34:49.236Z,20
2017-01-15T13:35:50.985Z,20
2017-01-15T13:36:49.599Z,20
2017-01-15T13:37:50.705Z,20
2017-01-15T13:38:50.055Z,20
2017-01-15T13:39:50.117Z,20
2017-01-15T13:40:49.624Z,20
2017-01-15T13:41:49.586Z,20
2017-01-15T13:42:49.793Z,20
2017-01-15T13:43:50.044Z,20
2017-01-15T13:44:49.603Z,20
2017-01-15T13:45:49.664Z,20
2017-01-15T13:46:49.667Z,20
2017-01-15T13:47:48.934Z,20
2017-01-15T13:48:48.842Z,20
2017-01-15T13:49:49.687Z,20
2017-01-15T13:50:49.747Z,25
2017-01-15T13:51:50.247Z,25
2017-01-15T13:52:50.059Z,20
2017-01-15T13:53:50.173Z,25
2017-01-15T13:54:50.569Z,25
2017-01-15T13:55:50.535Z,25
2017-01-15T13:56:49.889Z,25
2017-01-15T13:57:50.203Z,25
2017-01-15T13:58:50.151Z,20
2017-01-15T13:59:49.717Z,20
2017-01-15T14:00:50.657Z,20
2017-01-15T14:01:49.771Z,20
2017-01-15T14:02:50.579Z,20
2017-01-15T14:03:50.189Z,15
2017-01-15T14:04:50.191Z,15
2017-01-15T14:05:50.596Z,15
2017-01-15T14:06:51.154Z,15
2017-01-15T14:07:50.320Z,15
2017-01-15T14:08:50.555Z,15
2017-01-15T14:09:50.238Z,20
2017-01-15T14:10:49.550Z,20
2017-01-15T14:11:50.304Z,20
2017-01-15T14:12:50.263Z,20
2017-01-15T14:13:50.308Z,25
2017-01-15T14:14:49.471Z,25
2017-01-15T14:15:49.483Z,25
2017-01-15T14:16:50.629Z,25
2017-01-15T14:17:51.391Z,25
2017-01-15T14:18:50.393Z,20
2017-01-15T14:19:51.151Z,20
2017-01-15T14:20:50.360Z,20
2017-01-15T14:22:05.506Z,20
2017-01-15T14:22:50.378Z,20
2017-01-15T14:23:50.283Z,20
2017-01-15T14:24:50.293Z,20
2017-01-15T14:25:50.392Z,20
2017-01-15T14:26:50.796Z,20
2017-01-15T14:27:49.525Z,20
2017-01-15T14:28:50.077Z,20
2017-01-15T14:29:51.223Z,20
2017-01-15T14:30:51.749Z,20
2017-01-15T14:31:50.386Z,20